Terminal Aerodrome Forecast
Issued by NWS Nashville, TN

Home | Current Version | Previous Version | Text Only | Print | Product List | Glossary On
Versions: 1 2 3 4 5 6 7 8 9 10 11 12 13 14 15 16 17 18 19 20 21 22 23 24 25 26 27 28 29 30
000
FTUS44 KOHX 251128
TAFCSV
TAF
KCSV 251128Z 2512/2612 27006KT 6SM -RA BKN090 OVC110
      TEMPO 2513/2517 5SM -RA OVC015
     FM251800 28004KT P6SM BKN060
     FM260500 00000KT P6SM VCSH OVC025
     FM260900 VRB03KT P6SM OVC004=

USA.gov is the U.S. government's official web portal to all federal, state and local government web resources and services.